createdAt,value
2023-04-20T00:00:18.342Z,102085.56
2023-04-20T00:02:23.021Z,102082.16
2023-04-20T00:04:26.533Z,102075.22
2023-04-20T00:06:33.012Z,102083.22
2023-04-20T00:08:36.463Z,102086.81
2023-04-20T00:10:40.020Z,102075.56
2023-04-20T00:12:43.564Z,102063.41
2023-04-20T00:14:47.064Z,102068.69
2023-04-20T00:16:50.731Z,102059.25
2023-04-20T00:18:54.191Z,102063.72
2023-04-20T00:20:57.947Z,102070.75
2023-04-20T00:23:03.025Z,102065.59
2023-04-20T00:25:07.149Z,102060.47
2023-04-20T00:27:11.881Z,102059.72
2023-04-20T00:29:15.449Z,102064.22
2023-04-20T00:31:19.009Z,102073.97
2023-04-20T00:33:23.208Z,102065.41
2023-04-20T00:35:26.520Z,102068.19
2023-04-20T00:37:29.885Z,102063.06
2023-04-20T00:39:34.861Z,102071.06
2023-04-20T00:41:39.548Z,102064.25
2023-04-20T00:43:51.812Z,102069.56
2023-04-20T00:45:55.346Z,102067.13
2023-04-20T00:47:58.875Z,102070.75
2023-04-20T00:50:04.613Z,102067.56
2023-04-20T00:52:08.067Z,102066.06
2023-04-20T00:54:11.601Z,102055.94
2023-04-20T00:56:17.382Z,102051.00
2023-04-20T00:58:20.741Z,102053.81
2023-04-20T01:00:24.326Z,102043.63
2023-04-20T01:02:28.011Z,102029.94
2023-04-20T01:04:32.512Z,102031.03
2023-04-20T01:06:36.254Z,102039.84
2023-04-20T01:08:47.568Z,102046.03
2023-04-20T01:10:51.333Z,102040.91
2023-04-20T01:12:56.069Z,102027.91
2023-04-20T01:14:59.511Z,102028.00
2023-04-20T01:17:04.609Z,102028.13
2023-04-20T01:19:08.082Z,102024.66
2023-04-20T01:21:12.610Z,102015.97
2023-04-20T01:23:17.397Z,102017.69
2023-04-20T01:25:21.680Z,102015.06
2023-04-20T01:27:25.129Z,102017.69
2023-04-20T01:29:28.629Z,102019.38
2023-04-20T01:31:32.340Z,102012.47
2023-04-20T01:33:36.431Z,102009.06
2023-04-20T01:35:43.548Z,102013.50
2023-04-20T01:37:46.954Z,102012.69
2023-04-20T01:39:51.944Z,102009.28
2023-04-20T01:41:58.087Z,101998.94
2023-04-20T01:44:01.510Z,102008.53
2023-04-20T01:46:05.177Z,102002.56
2023-04-20T01:48:08.656Z,102007.78
2023-04-20T01:50:12.632Z,102007.78
2023-04-20T01:52:15.988Z,102012.97
2023-04-20T01:54:19.457Z,102018.19
2023-04-20T01:56:24.301Z,102006.97
2023-04-20T01:58:27.698Z,102000.94
2023-04-20T02:00:31.309Z,101992.31
2023-04-20T02:02:35.975Z,101988.06
2023-04-20T02:04:39.516Z,101989.00
2023-04-20T02:06:43.720Z,101980.50
2023-04-20T02:08:47.118Z,101989.31
2023-04-20T02:10:50.637Z,101987.72
2023-04-20T02:12:55.457Z,101994.72
2023-04-20T02:14:58.906Z,102011.34
2023-04-20T02:17:02.397Z,102001.94
2023-04-20T02:19:06.409Z,101999.47
2023-04-20T02:21:09.746Z,101995.31
2023-04-20T02:23:13.520Z,101979.78
2023-04-20T02:25:17.031Z,101966.81
2023-04-20T02:27:20.393Z,101965.13
2023-04-20T02:29:25.494Z,101971.25
2023-04-20T02:31:28.984Z,101966.13
2023-04-20T02:33:32.582Z,101964.44
2023-04-20T02:35:36.229Z,101959.31
2023-04-20T02:37:39.633Z,101962.81
2023-04-20T02:39:43.051Z,101959.41
2023-04-20T02:41:46.970Z,101962.91
2023-04-20T02:43:50.442Z,101957.69
2023-04-20T02:45:55.412Z,101949.09
2023-04-20T02:47:59.694Z,101950.78
2023-04-20T02:50:07.847Z,101956.00
2023-04-20T02:52:24.750Z,101960.41
2023-04-20T02:54:28.459Z,101958.66
2023-04-20T02:56:32.504Z,101949.94
2023-04-20T02:58:41.026Z,101953.38
2023-04-20T03:00:52.173Z,101955.94
2023-04-20T03:02:57.126Z,101953.34
2023-04-20T03:05:02.205Z,101956.78
2023-04-20T03:07:15.283Z,101942.03
2023-04-20T03:09:20.409Z,101949.84
2023-04-20T03:11:59.163Z,101948.97
2023-04-20T03:14:23.597Z,101949.88
2023-04-20T03:16:27.090Z,101962.00
2023-04-20T03:18:33.841Z,101956.78
2023-04-20T03:20:37.539Z,101951.63
2023-04-20T03:22:40.898Z,101945.56
2023-04-20T03:24:45.502Z,101946.53
2023-04-20T03:26:56.972Z,101950.84
2023-04-20T03:29:16.756Z,101944.00
2023-04-20T03:31:21.540Z,101950.13
2023-04-20T03:33:26.964Z,101951.94
2023-04-20T03:35:32.154Z,101950.28
2023-04-20T03:37:35.673Z,101958.19
2023-04-20T03:39:39.101Z,101957.41
2023-04-20T03:41:42.329Z,101957.47
2023-04-20T03:43:45.633Z,101966.25
2023-04-20T03:45:49.493Z,101958.53
2023-04-20T03:47:54.478Z,101959.50
2023-04-20T03:49:58.454Z,101963.94
2023-04-20T03:52:03.224Z,101957.13
2023-04-20T03:54:07.164Z,101956.41
2023-04-20T03:56:11.045Z,101945.22
2023-04-20T03:58:14.330Z,101957.47
2023-04-20T04:00:32.105Z,101951.50
2023-04-20T04:02:46.976Z,101950.75
2023-04-20T04:04:55.450Z,101943.03
2023-04-20T04:06:59.056Z,101953.53
2023-04-20T04:09:03.766Z,101949.25
2023-04-20T04:11:07.150Z,101954.56
2023-04-20T04:13:10.690Z,101954.63
2023-04-20T04:15:14.300Z,101951.22
2023-04-20T04:17:26.222Z,101946.09
2023-04-20T04:19:31.910Z,101947.91
2023-04-20T04:21:35.914Z,101942.72
2023-04-20T04:23:42.355Z,101944.50
2023-04-20T04:25:57.268Z,101954.94
2023-04-20T04:28:03.150Z,101946.28
2023-04-20T04:30:09.691Z,101946.38
2023-04-20T04:32:14.068Z,101949.03
2023-04-20T04:34:18.393Z,101953.38
2023-04-20T04:36:27.051Z,101958.56
2023-04-20T04:38:33.424Z,101962.91
2023-04-20T04:40:38.183Z,101973.31
2023-04-20T04:42:45.479Z,101975.97
2023-04-20T04:44:49.111Z,101968.19
2023-04-20T04:47:03.531Z,101975.16
2023-04-20T04:49:08.119Z,101971.69
2023-04-20T04:51:11.445Z,101984.69
2023-04-20T04:53:14.699Z,101977.75
2023-04-20T04:55:18.038Z,101988.16
2023-04-20T04:57:21.406Z,101976.03
2023-04-20T04:59:26.226Z,101975.19
2023-04-20T05:01:29.565Z,101969.13
2023-04-20T05:03:33.013Z,101969.13
2023-04-20T05:05:36.406Z,101975.19
2023-04-20T05:07:40.242Z,101974.25
2023-04-20T05:09:43.608Z,101971.66
2023-04-20T05:11:46.865Z,101973.34
2023-04-20T05:13:50.364Z,101981.09
2023-04-20T05:15:55.315Z,101975.00
2023-04-20T05:17:58.728Z,101979.28
2023-04-20T05:20:02.059Z,101977.50
2023-04-20T05:22:05.753Z,101974.88
2023-04-20T05:24:09.239Z,101980.94
2023-04-20T05:26:12.579Z,101981.78
2023-04-20T05:28:15.935Z,101981.78
2023-04-20T05:30:21.843Z,101977.44
2023-04-20T05:32:26.981Z,101988.63
2023-04-20T05:34:30.455Z,101983.41
2023-04-20T05:36:34.397Z,101984.34
2023-04-20T05:38:37.940Z,101981.78
2023-04-20T05:40:41.209Z,101986.13
2023-04-20T05:42:44.692Z,101988.72
2023-04-20T05:44:48.101Z,101997.34
2023-04-20T05:46:51.403Z,101993.94
2023-04-20T05:48:56.325Z,101989.53
2023-04-20T05:50:59.663Z,101986.94
2023-04-20T05:53:03.011Z,101988.72
2023-04-20T05:55:07.144Z,101987.84
2023-04-20T05:57:10.524Z,101993.03
2023-04-20T05:59:13.851Z,101980.94
2023-04-20T06:01:17.506Z,101981.81
2023-04-20T06:03:20.935Z,101993.03
2023-04-20T06:05:25.990Z,101990.44
2023-04-20T06:07:29.385Z,101991.22
2023-04-20T06:09:32.702Z,101994.66
2023-04-20T06:11:36.131Z,101992.94
2023-04-20T06:13:39.477Z,102001.53
2023-04-20T06:15:42.781Z,101994.56
2023-04-20T06:17:46.159Z,101991.94
2023-04-20T06:19:49.547Z,101989.34
2023-04-20T06:21:54.255Z,101983.25
2023-04-20T06:23:57.617Z,101984.03
2023-04-20T06:26:00.900Z,101995.19
2023-04-20T06:28:04.219Z,101996.03
2023-04-20T06:30:08.813Z,101988.16
2023-04-20T06:32:12.126Z,101990.69
2023-04-20T06:34:16.288Z,101981.13
2023-04-20T06:36:19.587Z,101988.03
2023-04-20T06:38:25.409Z,101985.41
2023-04-20T06:40:29.313Z,101986.25
2023-04-20T06:42:32.612Z,101989.66
2023-04-20T06:44:36.043Z,101983.56
2023-04-20T06:46:39.483Z,101979.22
2023-04-20T06:48:42.890Z,101983.53
2023-04-20T06:50:49.107Z,101988.69
2023-04-20T06:52:52.463Z,101987.78
2023-04-20T06:54:57.179Z,102000.72
2023-04-20T06:57:01.383Z,101992.03
2023-04-20T06:59:04.720Z,101995.53
2023-04-20T07:01:08.063Z,101993.81
2023-04-20T07:03:11.714Z,101985.19
2023-04-20T07:05:15.199Z,101990.41
2023-04-20T07:07:18.613Z,102002.53
2023-04-20T07:09:23.093Z,101997.22
2023-04-20T07:11:27.885Z,101998.94
2023-04-20T07:13:33.866Z,102011.06
2023-04-20T07:15:37.316Z,102010.16
2023-04-20T07:17:41.075Z,102002.34
2023-04-20T07:19:44.511Z,102011.06
2023-04-20T07:21:47.817Z,102011.06
2023-04-20T07:23:51.142Z,102004.09
2023-04-20T07:25:54.482Z,102010.19
2023-04-20T07:27:59.172Z,102014.56
2023-04-20T07:30:02.569Z,102015.41
2023-04-20T07:32:06.451Z,102023.25
2023-04-20T07:34:09.847Z,102023.25
2023-04-20T07:36:13.209Z,102024.97
2023-04-20T07:38:16.948Z,102036.22
2023-04-20T07:40:20.329Z,102034.44
2023-04-20T07:42:23.624Z,102032.69
2023-04-20T07:44:28.350Z,102035.28
2023-04-20T07:46:31.647Z,102037.91
2023-04-20T07:48:35.591Z,102027.53
2023-04-20T07:50:38.911Z,102022.31
2023-04-20T07:52:42.253Z,102030.16
2023-04-20T07:54:46.147Z,102024.97
2023-04-20T07:56:49.467Z,102030.16
2023-04-20T07:58:52.800Z,102028.38
2023-04-20T08:00:57.508Z,102029.22
2023-04-20T08:03:01.093Z,102037.00
2023-04-20T08:05:04.789Z,102033.50
2023-04-20T08:07:08.216Z,102043.03
2023-04-20T08:09:13.148Z,102044.72
2023-04-20T08:11:16.730Z,102039.53
2023-04-20T08:13:19.924Z,102043.84
2023-04-20T08:15:23.617Z,102049.84
2023-04-20T08:17:28.419Z,102046.34
2023-04-20T08:19:31.798Z,102049.72
2023-04-20T08:21:35.100Z,102047.06
2023-04-20T08:23:38.390Z,102050.47
2023-04-20T08:25:41.998Z,102059.97
2023-04-20T08:27:45.368Z,102060.88
2023-04-20T08:29:48.761Z,102069.59
2023-04-20T08:31:52.319Z,102067.03
2023-04-20T08:33:57.233Z,102067.94
2023-04-20T08:36:00.607Z,102071.41
2023-04-20T08:38:03.952Z,102066.28
2023-04-20T08:40:08.652Z,102066.28
2023-04-20T08:42:12.318Z,102062.88
2023-04-20T08:44:15.900Z,102063.72
2023-04-20T08:46:19.967Z,102061.06
2023-04-20T08:48:24.430Z,102057.59
2023-04-20T08:50:29.443Z,102051.47
2023-04-20T08:52:35.548Z,102047.06
2023-04-20T08:54:45.834Z,102046.97
2023-04-20T08:56:52.947Z,102053.72
2023-04-20T08:58:58.824Z,102041.34
2023-04-20T09:01:02.201Z,102041.09
2023-04-20T09:03:05.793Z,102053.88
2023-04-20T09:05:10.113Z,102051.13
2023-04-20T09:07:20.892Z,102046.63
2023-04-20T09:09:25.887Z,102043.84
2023-04-20T09:11:30.639Z,102051.41
2023-04-20T09:13:34.293Z,102049.47
2023-04-20T09:15:37.554Z,102044.88
2023-04-20T09:17:41.859Z,102056.69
2023-04-20T09:19:46.275Z,102062.47
2023-04-20T09:21:50.248Z,102068.25
2023-04-20T09:24:00.493Z,102071.44
2023-04-20T09:26:03.902Z,102059.03
2023-04-20T09:28:07.202Z,102064.72
2023-04-20T09:30:11.476Z,102069.47
2023-04-20T09:32:23.416Z,102068.13
2023-04-20T09:34:27.017Z,102070.50
2023-04-20T09:36:38.196Z,102083.44
2023-04-20T09:38:41.577Z,102078.22
2023-04-20T09:40:46.348Z,102090.47
2023-04-20T09:42:51.024Z,102094.84
2023-04-20T09:44:55.006Z,102086.25
2023-04-20T09:46:58.443Z,102092.53
2023-04-20T09:49:03.873Z,102091.00
2023-04-20T09:51:08.271Z,102079.06
2023-04-20T09:53:12.321Z,102074.94
2023-04-20T09:55:16.059Z,102067.31
2023-04-20T09:57:20.963Z,102074.47
2023-04-20T09:59:25.189Z,102066.75
2023-04-20T10:01:31.852Z,102041.56
2023-04-20T10:03:36.239Z,102030.22
2023-04-20T10:05:41.127Z,102035.34
2023-04-20T10:07:45.410Z,102035.16
2023-04-20T10:09:48.825Z,102047.09
2023-04-20T10:11:54.033Z,102050.16
2023-04-20T10:14:01.591Z,102043.28
2023-04-20T10:16:05.080Z,102049.94
2023-04-20T10:18:23.629Z,102060.50
2023-04-20T10:20:29.213Z,102053.69
2023-04-20T10:22:34.042Z,102066.31
2023-04-20T10:24:38.495Z,102068.25
2023-04-20T10:26:43.130Z,102067.97
2023-04-20T10:28:46.606Z,102072.28
2023-04-20T10:30:54.925Z,102068.31
2023-04-20T10:33:08.424Z,102068.75
2023-04-20T10:35:14.467Z,102071.78
2023-04-20T10:37:17.834Z,102073.84
2023-04-20T10:39:23.103Z,102068.72
2023-04-20T10:41:26.765Z,102073.16
2023-04-20T10:43:30.136Z,102070.56
2023-04-20T10:45:37.042Z,102068.84
2023-04-20T10:47:41.927Z,102068.97
2023-04-20T10:49:45.589Z,102074.31
2023-04-20T10:51:50.634Z,102063.91
2023-04-20T10:54:06.028Z,102069.22
2023-04-20T10:56:10.859Z,102061.25
2023-04-20T10:58:23.137Z,102058.50
2023-04-20T11:00:30.902Z,102054.19
2023-04-20T11:02:35.309Z,102055.88
2023-04-20T11:04:40.411Z,102062.81
2023-04-20T11:06:45.522Z,102059.19
2023-04-20T11:08:48.898Z,102062.47
2023-04-20T11:10:52.369Z,102059.63
2023-04-20T11:12:55.787Z,102063.88
2023-04-20T11:15:00.420Z,102061.16
2023-04-20T11:17:03.923Z,102060.22
2023-04-20T11:19:07.448Z,102053.03
2023-04-20T11:21:12.202Z,102051.09
2023-04-20T11:23:15.477Z,102048.34
2023-04-20T11:25:18.838Z,102059.81
2023-04-20T11:27:23.728Z,102059.72
2023-04-20T11:29:31.998Z,102046.66
2023-04-20T11:31:35.593Z,102050.97
2023-04-20T11:33:39.254Z,102050.97
2023-04-20T11:35:44.436Z,102051.75
2023-04-20T11:37:51.620Z,102049.78
2023-04-20T11:40:01.578Z,102043.38
2023-04-20T11:42:05.405Z,102048.34
2023-04-20T11:44:08.945Z,102055.28
2023-04-20T11:46:16.907Z,102055.28
2023-04-20T11:48:20.421Z,102049.19
2023-04-20T11:50:24.145Z,102048.34
2023-04-20T11:52:27.703Z,102041.28
2023-04-20T11:54:34.093Z,102041.16
2023-04-20T11:56:38.202Z,102043.47
2023-04-20T11:58:41.750Z,102042.44
2023-04-20T12:00:45.169Z,102043.41
2023-04-20T12:02:48.757Z,102042.66
2023-04-20T12:04:52.328Z,102040.22
2023-04-20T12:06:55.717Z,102048.22
2023-04-20T12:08:59.221Z,102048.34
2023-04-20T12:11:05.732Z,102057.25
2023-04-20T12:13:09.064Z,102050.44
2023-04-20T12:15:12.892Z,102050.56
2023-04-20T12:17:16.358Z,102059.56
2023-04-20T12:19:20.465Z,102057.97
2023-04-20T12:21:24.288Z,102056.44
2023-04-20T12:23:28.005Z,102056.63
2023-04-20T12:25:31.388Z,102062.19
2023-04-20T12:27:36.192Z,102060.81
2023-04-20T12:29:39.736Z,102059.28
2023-04-20T12:31:43.433Z,102060.31
2023-04-20T12:33:47.071Z,102055.16
2023-04-20T12:35:50.581Z,102067.50
2023-04-20T12:37:54.031Z,102071.94
2023-04-20T12:39:57.871Z,102074.78
2023-04-20T12:42:02.453Z,102071.47
2023-04-20T12:44:09.301Z,102060.28
2023-04-20T12:46:14.353Z,102070.84
2023-04-20T12:48:18.096Z,102070.84
2023-04-20T12:50:21.519Z,102070.84
2023-04-20T12:52:25.066Z,102071.72
2023-04-20T12:54:28.889Z,102054.94
2023-04-20T12:56:32.301Z,102052.72
2023-04-20T12:58:35.939Z,102049.44
2023-04-20T13:00:42.980Z,102040.63
2023-04-20T13:02:46.596Z,102043.84
2023-04-20T13:04:50.280Z,102045.44
2023-04-20T13:06:53.742Z,102050.97
2023-04-20T13:08:57.149Z,102042.81
2023-04-20T13:11:00.543Z,102040.84
2023-04-20T13:13:04.093Z,102036.38
2023-04-20T13:15:09.856Z,102037.16
2023-04-20T13:17:14.716Z,102032.84
2023-04-20T13:19:18.161Z,102030.06
2023-04-20T13:21:21.576Z,102027.38
2023-04-20T13:23:25.449Z,102038.59
2023-04-20T13:25:32.712Z,102032.25
2023-04-20T13:27:36.269Z,102031.41
2023-04-20T13:29:40.125Z,102026.41
2023-04-20T13:31:43.757Z,102024.69
2023-04-20T13:33:48.584Z,102022.88
2023-04-20T13:35:51.947Z,102022.69
2023-04-20T13:37:55.658Z,102025.19
2023-04-20T13:39:59.065Z,102024.25
2023-04-20T13:42:03.037Z,102018.16
2023-04-20T13:44:07.944Z,102019.16
2023-04-20T13:46:11.429Z,102015.75
2023-04-20T13:48:15.681Z,102010.50
2023-04-20T13:50:21.645Z,102012.00
2023-04-20T13:52:25.508Z,101996.06
2023-04-20T13:54:29.101Z,101995.22
2023-04-20T13:56:33.823Z,101995.34
2023-04-20T13:58:37.318Z,101994.50
2023-04-20T14:00:40.835Z,101991.88
2023-04-20T14:02:44.370Z,101987.56
2023-04-20T14:04:48.341Z,101986.63
2023-04-20T14:06:54.832Z,101977.00
2023-04-20T14:08:58.356Z,101980.41
2023-04-20T14:11:01.801Z,101969.84
2023-04-20T14:13:05.325Z,101975.72
2023-04-20T14:15:10.319Z,101972.81
2023-04-20T14:17:18.811Z,101979.44
2023-04-20T14:19:22.846Z,101979.16
2023-04-20T14:21:28.001Z,101976.53
2023-04-20T14:23:32.961Z,101972.91
2023-04-20T14:25:36.354Z,101968.38
2023-04-20T14:27:40.150Z,101975.19
2023-04-20T14:29:46.796Z,101962.69
2023-04-20T14:31:50.191Z,101967.63
2023-04-20T14:33:53.931Z,101969.88
2023-04-20T14:35:57.303Z,101959.91
2023-04-20T14:38:00.722Z,101962.31
2023-04-20T14:40:07.823Z,101965.53
2023-04-20T14:42:12.068Z,101962.69
2023-04-20T14:44:15.603Z,101963.47
2023-04-20T14:46:19.764Z,101953.03
2023-04-20T14:48:24.202Z,101946.09
2023-04-20T14:50:28.567Z,101936.28
2023-04-20T14:52:32.028Z,101938.69
2023-04-20T14:54:35.563Z,101935.69
2023-04-20T14:56:40.493Z,101934.31
2023-04-20T14:58:44.240Z,101920.81
2023-04-20T15:00:48.916Z,101923.88
2023-04-20T15:02:52.812Z,101918.28
2023-04-20T15:04:59.347Z,101922.44
2023-04-20T15:07:04.089Z,101907.31
2023-04-20T15:09:07.502Z,101909.56
2023-04-20T15:11:11.015Z,101909.31
2023-04-20T15:13:16.871Z,101909.31
2023-04-20T15:15:20.472Z,101910.06
2023-04-20T15:17:23.863Z,101902.84
2023-04-20T15:19:27.322Z,101896.41
2023-04-20T15:21:30.812Z,101903.97
2023-04-20T15:23:34.169Z,101903.47
2023-04-20T15:25:37.701Z,101894.88
2023-04-20T15:27:41.166Z,101893.25
2023-04-20T15:29:46.225Z,101889.84
2023-04-20T15:31:49.738Z,101885.56
2023-04-20T15:33:53.046Z,101885.69
2023-04-20T15:35:56.478Z,101880.66
2023-04-20T15:38:00.321Z,101870.50
2023-04-20T15:40:04.620Z,101871.94
2023-04-20T15:42:08.702Z,101874.38
2023-04-20T15:44:12.526Z,101863.63
2023-04-20T15:46:17.389Z,101860.81
2023-04-20T15:48:20.746Z,101859.84
2023-04-20T15:50:24.415Z,101862.66
2023-04-20T15:52:28.375Z,101860.66
2023-04-20T15:54:32.405Z,101861.22
2023-04-20T15:56:35.951Z,101861.34
2023-04-20T15:58:40.214Z,101858.22
2023-04-20T16:00:43.836Z,101863.53
2023-04-20T16:02:48.850Z,101860.50
2023-04-20T16:04:52.444Z,101853.00
2023-04-20T16:06:56.694Z,101851.31
2023-04-20T16:09:00.168Z,101850.47
2023-04-20T16:11:03.885Z,101853.41
2023-04-20T16:13:07.238Z,101844.09
2023-04-20T16:15:11.182Z,101850.06
2023-04-20T16:17:14.497Z,101847.31
2023-04-20T16:19:19.197Z,101852.28
2023-04-20T16:21:23.424Z,101853.41
2023-04-20T16:23:26.811Z,101858.16
2023-04-20T16:25:32.442Z,101854.03
2023-04-20T16:27:35.839Z,101856.84
2023-04-20T16:29:39.209Z,101857.91
2023-04-20T16:31:42.664Z,101861.56
2023-04-20T16:33:46.030Z,101851.94
2023-04-20T16:35:51.225Z,101864.22
2023-04-20T16:37:54.805Z,101864.91
2023-04-20T16:39:58.124Z,101864.69
2023-04-20T16:42:01.487Z,101860.88
2023-04-20T16:44:04.903Z,101865.81
2023-04-20T16:46:13.155Z,101864.47
2023-04-20T16:48:16.725Z,101865.72
2023-04-20T16:50:20.533Z,101867.84
2023-04-20T16:52:25.281Z,101869.91
2023-04-20T16:54:28.846Z,101875.41
2023-04-20T16:56:32.294Z,101868.69
2023-04-20T16:58:35.880Z,101863.59
2023-04-20T17:00:41.672Z,101873.34
2023-04-20T17:02:45.165Z,101862.19
2023-04-20T17:04:48.585Z,101860.69
2023-04-20T17:06:53.046Z,101854.00
2023-04-20T17:09:05.062Z,101857.78
2023-04-20T17:11:08.406Z,101858.09
2023-04-20T17:13:11.858Z,101847.75
2023-04-20T17:15:15.225Z,101853.94
2023-04-20T17:17:18.635Z,101852.44
2023-04-20T17:19:22.223Z,101843.94
2023-04-20T17:21:25.844Z,101852.16
2023-04-20T17:23:29.761Z,101838.25
2023-04-20T17:25:35.333Z,101840.72
2023-04-20T17:27:38.803Z,101834.38
2023-04-20T17:29:44.967Z,101832.53
2023-04-20T17:31:48.453Z,101828.19
2023-04-20T17:33:51.894Z,101830.84
2023-04-20T17:35:55.286Z,101828.97
2023-04-20T17:37:59.722Z,101826.75
2023-04-20T17:40:03.560Z,101824.59
2023-04-20T17:42:08.442Z,101827.97
2023-04-20T17:44:12.277Z,101832.38
2023-04-20T17:46:15.826Z,101826.44
2023-04-20T17:48:19.280Z,101826.59
2023-04-20T17:50:23.185Z,101833.72
2023-04-20T17:52:27.239Z,101833.72
2023-04-20T17:54:30.774Z,101828.47
2023-04-20T17:56:34.116Z,101839.03
2023-04-20T17:58:39.587Z,101842.88
2023-04-20T18:00:43.086Z,101840.72
2023-04-20T18:02:46.532Z,101838.88
2023-04-20T18:04:49.976Z,101848.34
2023-04-20T18:06:53.381Z,101843.03
2023-04-20T18:08:57.316Z,101842.94
2023-04-20T18:11:02.080Z,101853.28
2023-04-20T18:13:05.951Z,101847.88
2023-04-20T18:15:11.736Z,101852.03
2023-04-20T18:17:15.126Z,101854.34
2023-04-20T18:19:18.479Z,101854.88
2023-04-20T18:21:21.856Z,101853.59
2023-04-20T18:23:25.205Z,101858.41
2023-04-20T18:25:28.694Z,101854.53
2023-04-20T18:27:32.214Z,101849.63
2023-04-20T18:29:35.559Z,101856.13
2023-04-20T18:31:40.423Z,101859.97
2023-04-20T18:33:43.858Z,101851.53
2023-04-20T18:35:47.410Z,101856.97
2023-04-20T18:37:51.847Z,101856.38
2023-04-20T18:39:55.937Z,101856.69
2023-04-20T18:42:00.932Z,101855.25
2023-04-20T18:44:04.532Z,101853.69
2023-04-20T18:46:07.903Z,101860.88
2023-04-20T18:48:12.811Z,101860.25
2023-04-20T18:50:18.478Z,101854.34
2023-04-20T18:52:23.917Z,101858.00
2023-04-20T18:54:29.352Z,101859.84
2023-04-20T18:56:32.850Z,101856.56
2023-04-20T18:58:36.326Z,101861.00
2023-04-20T19:00:39.729Z,101848.91
2023-04-20T19:02:43.340Z,101854.22
2023-04-20T19:04:48.338Z,101853.41
2023-04-20T19:06:51.790Z,101855.28
2023-04-20T19:08:55.946Z,101846.66
2023-04-20T19:11:00.587Z,101846.78
2023-04-20T19:13:04.049Z,101846.91
2023-04-20T19:15:09.059Z,101847.81
2023-04-20T19:17:12.631Z,101857.47
2023-04-20T19:19:16.070Z,101866.28
2023-04-20T19:21:22.118Z,101853.34
2023-04-20T19:23:25.617Z,101864.78
2023-04-20T19:25:29.698Z,101865.75
2023-04-20T19:27:33.032Z,101867.56
2023-04-20T19:29:37.137Z,101865.03
2023-04-20T19:31:42.158Z,101867.72
2023-04-20T19:33:45.554Z,101866.88
2023-04-20T19:35:51.060Z,101866.16
2023-04-20T19:37:55.947Z,101864.50
2023-04-20T19:39:59.394Z,101868.94
2023-04-20T19:42:02.780Z,101862.03
2023-04-20T19:44:10.475Z,101877.75
2023-04-20T19:46:16.872Z,101871.75
2023-04-20T19:48:20.534Z,101876.22
2023-04-20T19:50:23.867Z,101875.38
2023-04-20T19:52:27.208Z,101871.13
2023-04-20T19:54:32.109Z,101884.25
2023-04-20T19:56:37.173Z,101887.81
2023-04-20T19:58:40.780Z,101893.16
2023-04-20T20:00:44.172Z,101895.91
2023-04-20T20:02:47.706Z,101895.97
2023-04-20T20:04:52.198Z,101889.09
2023-04-20T20:06:56.323Z,101886.53
2023-04-20T20:08:59.975Z,101897.03
2023-04-20T20:11:04.933Z,101898.84
2023-04-20T20:13:08.273Z,101898.19
2023-04-20T20:15:11.610Z,101903.50
2023-04-20T20:17:15.015Z,101904.47
2023-04-20T20:19:24.652Z,101903.78
2023-04-20T20:21:28.049Z,101901.28
2023-04-20T20:23:31.475Z,101897.94
2023-04-20T20:25:35.359Z,101901.50
2023-04-20T20:27:40.777Z,101898.16
2023-04-20T20:29:44.203Z,101899.13
2023-04-20T20:31:47.993Z,101902.75
2023-04-20T20:33:52.152Z,101899.34
2023-04-20T20:35:55.932Z,101895.09
2023-04-20T20:37:59.340Z,101895.16
2023-04-20T20:40:10.341Z,101895.28
2023-04-20T20:42:15.676Z,101896.19
2023-04-20T20:44:20.753Z,101899.69
2023-04-20T20:46:24.331Z,101897.16
2023-04-20T20:48:27.745Z,101894.53
2023-04-20T20:50:31.343Z,101893.63
2023-04-20T20:52:34.770Z,101898.78
2023-04-20T20:54:38.110Z,101892.66
2023-04-20T20:56:41.556Z,101885.69
2023-04-20T20:58:45.373Z,101897.88
2023-04-20T21:00:50.365Z,101892.66
2023-04-20T21:02:53.886Z,101890.97
2023-04-20T21:04:57.373Z,101901.47
2023-04-20T21:07:00.891Z,101896.28
2023-04-20T21:09:04.700Z,101898.09
2023-04-20T21:11:08.741Z,101887.78
2023-04-20T21:13:12.083Z,101896.50
2023-04-20T21:15:15.391Z,101893.09
2023-04-20T21:17:20.109Z,101893.09
2023-04-20T21:19:23.485Z,101896.63
2023-04-20T21:21:27.489Z,101900.09
2023-04-20T21:23:30.831Z,101895.75
2023-04-20T21:25:34.103Z,101897.47
2023-04-20T21:27:37.468Z,101898.31
2023-04-20T21:29:40.809Z,101900.03
2023-04-20T21:31:44.104Z,101900.03
2023-04-20T21:33:48.848Z,101905.25
2023-04-20T21:35:52.197Z,101900.03
2023-04-20T21:37:55.473Z,101901.63
2023-04-20T21:39:58.831Z,101889.47
2023-04-20T21:42:03.209Z,101901.63
2023-04-20T21:44:06.859Z,101905.03
2023-04-20T21:46:10.306Z,101891.97
2023-04-20T21:48:13.664Z,101898.00
2023-04-20T21:50:18.594Z,101898.84
2023-04-20T21:52:21.925Z,101901.41
2023-04-20T21:54:25.310Z,101898.78
2023-04-20T21:56:28.654Z,101901.41
2023-04-20T21:58:32.012Z,101897.03
2023-04-20T22:00:35.451Z,101897.09
2023-04-20T22:02:38.956Z,101901.41
2023-04-20T22:04:42.781Z,101897.09
2023-04-20T22:06:48.818Z,101896.19
2023-04-20T22:08:52.157Z,101898.78
2023-04-20T22:10:56.606Z,101898.78
2023-04-20T22:13:00.164Z,101894.47
2023-04-20T22:15:03.519Z,101894.47
2023-04-20T22:17:09.721Z,101898.00
2023-04-20T22:19:13.100Z,101899.81
2023-04-20T22:21:16.401Z,101902.53
2023-04-20T22:23:21.257Z,101900.03
2023-04-20T22:25:24.982Z,101898.44
2023-04-20T22:27:28.996Z,101904.66
2023-04-20T22:29:32.360Z,101899.59
2023-04-20T22:31:35.755Z,101905.81
2023-04-20T22:33:39.142Z,101903.38
2023-04-20T22:35:42.758Z,101904.31
2023-04-20T22:37:46.037Z,101894.94
2023-04-20T22:39:50.813Z,101901.97
2023-04-20T22:41:54.074Z,101894.31
2023-04-20T22:43:57.425Z,101898.81
2023-04-20T22:46:00.758Z,101892.00
2023-04-20T22:48:04.218Z,101891.25
2023-04-20T22:50:09.612Z,101893.06
2023-04-20T22:52:13.753Z,101886.22
2023-04-20T22:54:17.236Z,101895.84
2023-04-20T22:56:21.963Z,101887.34
2023-04-20T22:58:25.237Z,101884.88
2023-04-20T23:00:28.762Z,101893.69
2023-04-20T23:02:32.532Z,101888.56
2023-04-20T23:04:37.698Z,101893.00
2023-04-20T23:06:43.949Z,101893.13
2023-04-20T23:08:47.315Z,101885.38
2023-04-20T23:10:50.861Z,101895.88
2023-04-20T23:12:56.144Z,101892.47
2023-04-20T23:15:00.736Z,101899.50
2023-04-20T23:17:04.170Z,101896.09
2023-04-20T23:19:07.531Z,101896.22
2023-04-20T23:21:10.782Z,101894.50
2023-04-20T23:23:14.109Z,101898.06
2023-04-20T23:25:17.575Z,101891.19
2023-04-20T23:27:20.875Z,101894.72
2023-04-20T23:29:25.564Z,101891.28
2023-04-20T23:31:28.944Z,101887.88
2023-04-20T23:33:32.274Z,101879.28
2023-04-20T23:35:35.623Z,101883.66
2023-04-20T23:37:39.109Z,101878.50
2023-04-20T23:39:42.417Z,101888.06